createdAt,value
2023-04-15T00:01:10.261Z,97260.63
2023-04-15T00:03:37.519Z,97257.03
2023-04-15T00:06:05.079Z,97264.66
2023-04-15T00:08:32.157Z,97265.50
2023-04-15T00:11:03.071Z,97267.16
2023-04-15T00:13:30.509Z,97272.91
2023-04-15T00:15:58.291Z,97281.66
2023-04-15T00:18:25.612Z,97282.16
2023-04-15T00:20:53.619Z,97278.03
2023-04-15T00:23:21.126Z,97285.47
2023-04-15T00:25:48.400Z,97290.97
2023-04-15T00:28:15.272Z,97298.28
2023-04-15T00:30:43.052Z,97294.28
2023-04-15T00:33:10.783Z,97310.31
2023-04-15T00:35:38.079Z,97303.56
2023-04-15T00:38:06.927Z,97307.25
2023-04-15T00:40:34.506Z,97321.84
2023-04-15T00:43:02.454Z,97311.53
2023-04-15T00:45:30.529Z,97310.56
2023-04-15T00:47:57.487Z,97318.00
2023-04-15T00:50:24.778Z,97320.72
2023-04-15T00:52:52.417Z,97312.75
2023-04-15T00:55:19.758Z,97313.16
2023-04-15T00:57:46.789Z,97306.16
2023-04-15T01:00:14.408Z,97290.06
2023-04-15T01:02:44.345Z,97284.97
2023-04-15T01:05:11.900Z,97285.94
2023-04-15T01:07:38.928Z,97288.00
2023-04-15T01:10:07.124Z,97290.56
2023-04-15T01:12:34.466Z,97291.59
2023-04-15T01:15:02.377Z,97291.31
2023-04-15T01:17:29.879Z,97282.19
2023-04-15T01:19:59.849Z,97285.09
2023-04-15T01:22:28.189Z,97290.69
2023-04-15T01:25:02.461Z,97277.22
2023-04-15T01:27:30.573Z,97281.66
2023-04-15T01:29:58.487Z,97282.56
2023-04-15T01:32:25.629Z,97303.31
2023-04-15T01:34:53.051Z,97298.13
2023-04-15T01:37:20.501Z,97305.59
2023-04-15T01:39:47.709Z,97312.63
2023-04-15T01:42:14.751Z,97316.06
2023-04-15T01:44:41.996Z,97326.78
2023-04-15T01:47:08.948Z,97328.75
2023-04-15T01:49:36.668Z,97334.50
2023-04-15T01:52:03.944Z,97331.19
2023-04-15T01:54:31.623Z,97326.41
2023-04-15T01:56:58.950Z,97334.38
2023-04-15T01:59:26.416Z,97343.63
2023-04-15T02:01:53.297Z,97343.22
2023-04-15T02:04:21.236Z,97342.78
2023-04-15T02:06:48.826Z,97341.97
2023-04-15T02:09:16.025Z,97343.09
2023-04-15T02:11:43.160Z,97339.78
2023-04-15T02:14:10.609Z,97337.72
2023-04-15T02:16:37.604Z,97342.78
2023-04-15T02:19:05.149Z,97334.53
2023-04-15T02:21:32.143Z,97341.97
2023-04-15T02:23:59.338Z,97344.97
2023-04-15T02:26:26.536Z,97353.47
2023-04-15T02:28:53.926Z,97360.19
2023-04-15T02:31:21.919Z,97364.72
2023-04-15T02:33:49.667Z,97378.72
2023-04-15T02:36:16.788Z,97377.72
2023-04-15T02:38:44.050Z,97370.41
2023-04-15T02:41:11.114Z,97373.28
2023-04-15T02:43:40.079Z,97372.88
2023-04-15T02:46:07.141Z,97375.34
2023-04-15T02:48:34.597Z,97376.78
2023-04-15T02:51:15.113Z,97384.84
2023-04-15T02:53:42.963Z,97387.94
2023-04-15T02:56:10.176Z,97382.13
2023-04-15T02:58:37.649Z,97392.06
2023-04-15T03:02:01.310Z,97382.03
2023-04-15T03:04:47.065Z,97387.38
2023-04-15T03:07:14.605Z,97388.91
2023-04-15T03:09:41.737Z,97391.78
2023-04-15T03:12:09.118Z,97393.38
2023-04-15T03:14:36.408Z,97393.97
2023-04-15T03:17:03.603Z,97392.31
2023-04-15T03:19:30.806Z,97394.22
2023-04-15T03:21:58.370Z,97402.78
2023-04-15T03:24:25.416Z,97410.94
2023-04-15T03:26:52.854Z,97409.28
2023-04-15T03:29:19.961Z,97416.34
2023-04-15T03:31:47.554Z,97407.31
2023-04-15T03:34:14.768Z,97402.22
2023-04-15T03:36:42.285Z,97407.56
2023-04-15T03:39:09.661Z,97408.50
2023-04-15T03:41:37.242Z,97408.81
2023-04-15T03:44:04.433Z,97405.38
2023-04-15T03:46:32.177Z,97410.63
2023-04-15T03:48:59.425Z,97414.28
2023-04-15T03:51:27.320Z,97410.34
2023-04-15T03:53:54.178Z,97416.50
2023-04-15T03:56:21.639Z,97406.34
2023-04-15T03:58:49.011Z,97417.69
2023-04-15T04:01:16.698Z,97409.31
2023-04-15T04:03:43.726Z,97405.84
2023-04-15T04:06:12.574Z,97407.78
2023-04-15T04:08:39.525Z,97407.16
2023-04-15T04:11:06.800Z,97408.34
2023-04-15T04:13:33.857Z,97407.00
2023-04-15T04:16:01.204Z,97416.22
2023-04-15T04:18:28.674Z,97415.69
2023-04-15T04:20:56.334Z,97422.81
2023-04-15T04:23:23.330Z,97415.00
2023-04-15T04:25:50.529Z,97421.88
2023-04-15T04:28:17.744Z,97423.38
2023-04-15T04:30:45.780Z,97429.19
2023-04-15T04:33:13.425Z,97429.13
2023-04-15T04:35:41.758Z,97426.28
2023-04-15T04:38:08.855Z,97431.34
2023-04-15T04:40:36.388Z,97437.00
2023-04-15T04:43:03.644Z,97440.56
2023-04-15T04:45:31.106Z,97446.31
2023-04-15T04:47:58.305Z,97449.75
2023-04-15T04:50:25.847Z,97460.13
2023-04-15T04:52:52.734Z,97464.13
2023-04-15T04:55:19.965Z,97456.38
2023-04-15T04:57:47.553Z,97460.47
2023-04-15T05:00:14.994Z,97459.09
2023-04-15T05:02:44.232Z,97452.81
2023-04-15T05:05:12.340Z,97460.28
2023-04-15T05:07:42.545Z,97464.25
2023-04-15T05:10:10.269Z,97465.25
2023-04-15T05:12:38.662Z,97470.06
2023-04-15T05:15:06.856Z,97475.97
2023-04-15T05:17:35.490Z,97476.41
2023-04-15T05:20:03.915Z,97464.13
2023-04-15T05:22:31.082Z,97456.28
2023-04-15T05:24:58.449Z,97452.31
2023-04-15T05:27:25.970Z,97450.50
2023-04-15T05:29:53.280Z,97448.81
2023-04-15T05:32:20.895Z,97451.59
2023-04-15T05:34:48.811Z,97468.66
2023-04-15T05:37:15.832Z,97469.88
2023-04-15T05:39:43.284Z,97477.59
2023-04-15T05:42:10.798Z,97477.72
2023-04-15T05:44:38.314Z,97483.31
2023-04-15T05:47:06.039Z,97483.69
2023-04-15T05:49:33.518Z,97481.81
2023-04-15T05:52:00.862Z,97486.75
2023-04-15T05:54:28.522Z,97485.63
2023-04-15T05:56:57.962Z,97484.53
2023-04-15T05:59:25.141Z,97497.50
2023-04-15T06:01:52.539Z,97506.59
2023-04-15T06:04:20.131Z,97493.09
2023-04-15T06:06:47.477Z,97506.88
2023-04-15T06:09:14.917Z,97503.81
2023-04-15T06:11:42.231Z,97498.78
2023-04-15T06:14:09.691Z,97513.69
2023-04-15T06:16:36.939Z,97514.41
2023-04-15T06:19:04.600Z,97514.72
2023-04-15T06:21:32.061Z,97507.56
2023-04-15T06:24:03.909Z,97501.97
2023-04-15T06:26:31.615Z,97511.28
2023-04-15T06:28:59.225Z,97507.78
2023-04-15T06:31:26.440Z,97507.03
2023-04-15T06:33:53.910Z,97514.88
2023-04-15T06:36:21.311Z,97519.16
2023-04-15T06:38:48.795Z,97518.22
2023-04-15T06:41:16.475Z,97517.50
2023-04-15T06:43:43.721Z,97518.63
2023-04-15T06:46:11.151Z,97519.91
2023-04-15T06:48:39.020Z,97512.50
2023-04-15T06:51:06.319Z,97521.78
2023-04-15T06:53:33.762Z,97523.84
2023-04-15T06:56:01.068Z,97519.88
2023-04-15T06:58:28.431Z,97526.25
2023-04-15T07:00:55.857Z,97520.66
2023-04-15T07:03:23.552Z,97526.22
2023-04-15T07:05:50.629Z,97523.34
2023-04-15T07:08:18.062Z,97526.34
2023-04-15T07:10:47.289Z,97535.72
2023-04-15T07:13:14.543Z,97528.13
2023-04-15T07:15:41.548Z,97529.38
2023-04-15T07:18:10.019Z,97529.50
2023-04-15T07:20:36.910Z,97529.78
2023-04-15T07:23:04.358Z,97535.59
2023-04-15T07:25:31.744Z,97533.47
2023-04-15T07:27:59.283Z,97535.75
2023-04-15T07:30:26.266Z,97536.06
2023-04-15T07:32:53.620Z,97535.69
2023-04-15T07:35:21.678Z,97530.78
2023-04-15T07:37:48.912Z,97535.44
2023-04-15T07:40:16.352Z,97528.03
2023-04-15T07:42:43.762Z,97530.47
2023-04-15T07:45:11.561Z,97521.88
2023-04-15T07:47:39.300Z,97520.09
2023-04-15T07:50:07.516Z,97518.91
2023-04-15T07:52:39.351Z,97524.34
2023-04-15T07:55:10.957Z,97522.06
2023-04-15T07:57:38.185Z,97537.75
2023-04-15T08:00:07.802Z,97537.06
2023-04-15T08:02:36.937Z,97533.44
2023-04-15T08:05:06.185Z,97537.28
2023-04-15T08:07:33.796Z,97537.75
2023-04-15T08:10:01.323Z,97538.91
2023-04-15T08:12:28.984Z,97539.72
2023-04-15T08:14:57.493Z,97536.41
2023-04-15T08:17:25.245Z,97535.75
2023-04-15T08:19:52.346Z,97530.31
2023-04-15T08:22:20.614Z,97534.28
2023-04-15T08:24:49.354Z,97530.50
2023-04-15T08:27:16.931Z,97537.09
2023-04-15T08:29:45.490Z,97532.78
2023-04-15T08:32:12.790Z,97530.31
2023-04-15T08:34:39.975Z,97526.84
2023-04-15T08:37:07.285Z,97532.63
2023-04-15T08:39:34.375Z,97534.75
2023-04-15T08:42:03.895Z,97531.34
2023-04-15T08:44:33.524Z,97542.19
2023-04-15T08:47:06.136Z,97536.94
2023-04-15T08:49:33.436Z,97541.22
2023-04-15T08:52:00.920Z,97547.47
2023-04-15T08:54:28.685Z,97556.88
2023-04-15T08:56:58.652Z,97547.00
2023-04-15T08:59:25.922Z,97543.38
2023-04-15T09:01:54.177Z,97548.47
2023-04-15T09:04:21.230Z,97558.84
2023-04-15T09:06:48.505Z,97555.84
2023-04-15T09:09:15.597Z,97553.53
2023-04-15T09:11:43.497Z,97557.19
2023-04-15T09:14:10.675Z,97548.22
2023-04-15T09:17:05.915Z,97537.97
2023-04-15T09:19:34.739Z,97535.31
2023-04-15T09:22:02.468Z,97539.97
2023-04-15T09:24:41.070Z,97534.84
2023-04-15T09:27:08.622Z,97532.00
2023-04-15T09:29:35.663Z,97533.09
2023-04-15T09:32:15.885Z,97534.09
2023-04-15T09:34:43.509Z,97534.50
2023-04-15T09:37:11.364Z,97543.28
2023-04-15T09:39:50.671Z,97538.09
2023-04-15T09:42:24.539Z,97540.06
2023-04-15T09:44:53.201Z,97529.81
2023-04-15T09:47:33.154Z,97536.47
2023-04-15T09:50:01.308Z,97535.03
2023-04-15T09:52:29.473Z,97530.50
2023-04-15T09:55:00.378Z,97537.78
2023-04-15T09:57:35.575Z,97531.31
2023-04-15T10:00:11.230Z,97538.09
2023-04-15T10:02:40.934Z,97540.31
2023-04-15T10:05:10.660Z,97540.69
2023-04-15T10:07:38.660Z,97540.84
2023-04-15T10:10:06.317Z,97533.53
2023-04-15T10:12:33.877Z,97525.13
2023-04-15T10:15:05.217Z,97523.06
2023-04-15T10:17:35.624Z,97525.91
2023-04-15T10:20:05.038Z,97532.16
2023-04-15T10:22:33.184Z,97531.22
2023-04-15T10:25:01.241Z,97529.34
2023-04-15T10:27:29.290Z,97524.94
2023-04-15T10:29:57.338Z,97526.03
2023-04-15T10:32:25.036Z,97521.38
2023-04-15T10:34:54.467Z,97528.59
2023-04-15T10:37:23.755Z,97528.94
2023-04-15T10:39:51.160Z,97524.47
2023-04-15T10:42:19.815Z,97533.13
2023-04-15T10:44:54.188Z,97529.19
2023-04-15T10:47:22.231Z,97534.75
2023-04-15T10:49:52.563Z,97534.56
2023-04-15T10:52:25.133Z,97526.28
2023-04-15T10:55:11.414Z,97532.66
2023-04-15T10:57:40.174Z,97527.56
2023-04-15T11:00:12.487Z,97527.81
2023-04-15T11:02:52.466Z,97527.38
2023-04-15T11:05:21.643Z,97528.22
2023-04-15T11:07:58.872Z,97525.66
2023-04-15T11:10:26.293Z,97529.34
2023-04-15T11:12:57.261Z,97529.03
2023-04-15T11:15:34.669Z,97532.16
2023-04-15T11:18:22.432Z,97531.34
2023-04-15T11:20:55.118Z,97519.81
2023-04-15T11:23:31.633Z,97524.31
2023-04-15T11:26:00.063Z,97523.63
2023-04-15T11:28:29.024Z,97524.72
2023-04-15T11:30:56.422Z,97525.28
2023-04-15T11:33:24.771Z,97531.75
2023-04-15T11:35:55.408Z,97524.00
2023-04-15T11:38:23.167Z,97525.19
2023-04-15T11:40:51.739Z,97528.06
2023-04-15T11:43:23.376Z,97530.59
2023-04-15T11:46:00.656Z,97526.69
2023-04-15T11:48:33.259Z,97536.44
2023-04-15T11:51:04.834Z,97522.09
2023-04-15T11:53:39.339Z,97547.66
2023-04-15T11:56:07.236Z,97533.03
2023-04-15T11:58:37.711Z,97535.28
2023-04-15T12:01:06.221Z,97527.38
2023-04-15T12:03:39.103Z,97540.38
2023-04-15T12:06:13.360Z,97532.63
2023-04-15T12:08:56.229Z,97535.72
2023-04-15T12:11:45.961Z,97534.88
2023-04-15T12:14:16.107Z,97526.50
2023-04-15T12:16:48.914Z,97532.63
2023-04-15T12:19:22.962Z,97539.56
2023-04-15T12:21:50.171Z,97535.06
2023-04-15T12:24:22.416Z,97534.41
2023-04-15T12:26:52.149Z,97538.94
2023-04-15T12:29:20.356Z,97535.09
2023-04-15T12:31:50.196Z,97538.97
2023-04-15T12:34:18.032Z,97541.91
2023-04-15T12:36:45.102Z,97532.28
2023-04-15T12:39:13.190Z,97528.66
2023-04-15T12:41:40.541Z,97522.75
2023-04-15T12:44:08.673Z,97530.63
2023-04-15T12:46:35.863Z,97534.31
2023-04-15T12:49:03.275Z,97525.31
2023-04-15T12:51:31.873Z,97533.94
2023-04-15T12:53:59.280Z,97544.88
2023-04-15T12:56:27.032Z,97540.19
2023-04-15T12:58:54.753Z,97532.00
2023-04-15T13:01:21.764Z,97537.72
2023-04-15T13:03:50.562Z,97534.78
2023-04-15T13:06:17.863Z,97539.22
2023-04-15T13:08:57.377Z,97537.22
2023-04-15T13:11:26.230Z,97546.56
2023-04-15T13:13:53.806Z,97554.91
2023-04-15T13:16:21.976Z,97552.88
2023-04-15T13:18:49.586Z,97551.59
2023-04-15T13:21:17.062Z,97566.78
2023-04-15T13:23:44.276Z,97559.06
2023-04-15T13:26:11.399Z,97564.44
2023-04-15T13:28:38.730Z,97555.88
2023-04-15T13:31:06.210Z,97563.88
2023-04-15T13:33:33.922Z,97569.06
2023-04-15T13:36:01.109Z,97569.25
2023-04-15T13:38:29.396Z,97572.72
2023-04-15T13:40:56.979Z,97573.50
2023-04-15T13:43:24.184Z,97584.22
2023-04-15T13:45:51.373Z,97582.41
2023-04-15T13:48:19.216Z,97582.69
2023-04-15T13:50:46.083Z,97590.06
2023-04-15T13:53:13.443Z,97581.47
2023-04-15T13:55:42.723Z,97581.44
2023-04-15T13:58:10.535Z,97582.47
2023-04-15T14:00:37.647Z,97579.69
2023-04-15T14:03:05.660Z,97572.03
2023-04-15T14:05:33.125Z,97571.78
2023-04-15T14:08:00.643Z,97579.50
2023-04-15T14:10:28.038Z,97580.25
2023-04-15T14:12:55.450Z,97581.47
2023-04-15T14:15:22.458Z,97583.25
2023-04-15T14:17:49.878Z,97582.34
2023-04-15T14:20:17.364Z,97590.22
2023-04-15T14:22:44.860Z,97584.69
2023-04-15T14:25:23.117Z,97588.78
2023-04-15T14:27:54.157Z,97590.53
2023-04-15T14:30:21.513Z,97591.25
2023-04-15T14:32:48.834Z,97586.31
2023-04-15T14:35:15.997Z,97594.28
2023-04-15T14:37:43.874Z,97592.28
2023-04-15T14:40:11.284Z,97587.47
2023-04-15T14:42:43.893Z,97596.59
2023-04-15T14:45:11.564Z,97599.19
2023-04-15T14:47:38.894Z,97597.28
2023-04-15T14:50:06.391Z,97602.84
2023-04-15T14:52:39.855Z,97595.47
2023-04-15T14:55:08.579Z,97606.16
2023-04-15T14:57:37.467Z,97611.28
2023-04-15T15:00:05.777Z,97609.81
2023-04-15T15:02:39.268Z,97611.91
2023-04-15T15:05:07.819Z,97614.34
2023-04-15T15:07:37.173Z,97622.94
2023-04-15T15:10:05.524Z,97622.34
2023-04-15T15:12:34.440Z,97620.81
2023-04-15T15:15:05.019Z,97619.41
2023-04-15T15:17:37.085Z,97625.84
2023-04-15T15:20:04.690Z,97622.59
2023-04-15T15:22:31.979Z,97640.78
2023-04-15T15:24:59.856Z,97641.69
2023-04-15T15:27:28.166Z,97668.13
2023-04-15T15:29:56.742Z,97667.03
2023-04-15T15:32:24.738Z,97673.56
2023-04-15T15:34:51.953Z,97671.03
2023-04-15T15:37:19.344Z,97673.16
2023-04-15T15:39:46.563Z,97668.72
2023-04-15T15:42:13.880Z,97670.75
2023-04-15T15:44:40.888Z,97670.72
2023-04-15T15:47:09.042Z,97692.00
2023-04-15T15:49:36.455Z,97695.88
2023-04-15T15:52:03.921Z,97694.94
2023-04-15T15:54:32.084Z,97709.06
2023-04-15T15:56:59.415Z,97704.19
2023-04-15T15:59:26.518Z,97703.16
2023-04-15T16:01:54.075Z,97713.66
2023-04-15T16:04:21.236Z,97711.47
2023-04-15T16:06:48.710Z,97705.41
2023-04-15T16:09:16.386Z,97705.63
2023-04-15T16:11:45.093Z,97710.69
2023-04-15T16:14:12.351Z,97712.19
2023-04-15T16:16:40.332Z,97712.75
2023-04-15T16:19:07.352Z,97711.09
2023-04-15T16:21:35.049Z,97716.59
2023-04-15T16:24:02.595Z,97716.75
2023-04-15T16:26:29.914Z,97719.34
2023-04-15T16:28:56.900Z,97730.38
2023-04-15T16:31:24.891Z,97724.69
2023-04-15T16:33:51.910Z,97730.88
2023-04-15T16:36:19.262Z,97747.66
2023-04-15T16:38:48.681Z,97772.66
2023-04-15T16:41:16.448Z,97782.44
2023-04-15T16:43:43.489Z,97778.03
2023-04-15T16:46:11.332Z,97786.91
2023-04-15T16:48:38.251Z,97791.38
2023-04-15T16:51:08.431Z,97806.44
2023-04-15T16:53:35.548Z,97802.56
2023-04-15T16:56:02.749Z,97806.03
2023-04-15T16:58:29.766Z,97810.56
2023-04-15T17:00:57.371Z,97824.25
2023-04-15T17:03:24.658Z,97819.84
2023-04-15T17:05:52.234Z,97832.25
2023-04-15T17:08:19.626Z,97840.00
2023-04-15T17:10:46.896Z,97835.69
2023-04-15T17:13:13.900Z,97836.66
2023-04-15T17:15:42.850Z,97841.50
2023-04-15T17:18:14.031Z,97846.50
2023-04-15T17:20:41.364Z,97851.63
2023-04-15T17:23:08.540Z,97847.22
2023-04-15T17:25:35.992Z,97850.56
2023-04-15T17:28:02.971Z,97856.50
2023-04-15T17:30:31.039Z,97847.22
2023-04-15T17:32:57.989Z,97853.88
2023-04-15T17:35:26.461Z,97853.44
2023-04-15T17:37:53.788Z,97858.03
2023-04-15T17:40:21.556Z,97857.00
2023-04-15T17:42:48.958Z,97862.81
2023-04-15T17:45:16.578Z,97968.91
2023-04-15T17:47:43.614Z,97906.94
2023-04-15T17:50:11.141Z,97882.72
2023-04-15T17:52:38.360Z,97880.78
2023-04-15T17:55:06.696Z,97879.50
2023-04-15T17:57:34.021Z,97870.97
2023-04-15T18:00:01.788Z,97869.03
2023-04-15T18:02:29.032Z,97872.94
2023-04-15T18:04:57.005Z,97876.56
2023-04-15T18:07:24.250Z,97887.81
2023-04-15T18:09:53.283Z,97889.00
2023-04-15T18:12:20.195Z,97903.38
2023-04-15T18:14:47.510Z,97901.97
2023-04-15T18:17:15.066Z,97911.56
2023-04-15T18:19:43.538Z,97918.03
2023-04-15T18:22:11.076Z,97936.38
2023-04-15T18:24:38.557Z,97940.78
2023-04-15T18:27:05.802Z,97932.50
2023-04-15T18:29:34.534Z,97935.38
2023-04-15T18:32:03.213Z,97937.91
2023-04-15T18:34:43.022Z,97935.72
2023-04-15T18:37:10.116Z,97946.72
2023-04-15T18:39:37.459Z,97938.88
2023-04-15T18:42:04.711Z,97938.88
2023-04-15T18:44:32.180Z,97942.91
2023-04-15T18:46:59.224Z,97952.44
2023-04-15T18:49:27.516Z,97965.38
2023-04-15T18:51:54.722Z,97957.19
2023-04-15T18:54:22.060Z,97959.63
2023-04-15T18:56:49.143Z,97961.53
2023-04-15T18:59:28.890Z,97961.25
2023-04-15T19:01:59.051Z,97971.75
2023-04-15T19:04:29.007Z,97973.19
2023-04-15T19:06:56.613Z,97977.63
2023-04-15T19:09:23.936Z,97973.50
2023-04-15T19:11:51.198Z,97986.34
2023-04-15T19:14:18.744Z,97992.78
2023-04-15T19:16:46.100Z,97990.88
2023-04-15T19:19:14.732Z,97996.59
2023-04-15T19:21:42.037Z,97995.16
2023-04-15T19:24:10.135Z,98005.63
2023-04-15T19:26:37.556Z,98009.44
2023-04-15T19:29:05.167Z,98012.06
2023-04-15T19:31:32.862Z,98021.19
2023-04-15T19:34:00.456Z,98028.16
2023-04-15T19:36:28.633Z,98026.75
2023-04-15T19:38:56.422Z,98033.63
2023-04-15T19:41:23.529Z,98035.63
2023-04-15T19:43:50.818Z,98042.88
2023-04-15T19:46:18.322Z,98050.72
2023-04-15T19:48:46.107Z,98053.31
2023-04-15T19:51:13.091Z,98048.31
2023-04-15T19:53:41.470Z,98052.09
2023-04-15T19:56:08.519Z,98048.78
2023-04-15T19:58:36.143Z,98058.28
2023-04-15T20:01:03.485Z,98057.09
2023-04-15T20:03:31.211Z,98072.03
2023-04-15T20:05:58.431Z,98083.34
2023-04-15T20:08:25.651Z,98084.81
2023-04-15T20:10:52.764Z,98084.97
2023-04-15T20:13:20.090Z,98082.00
2023-04-15T20:15:47.560Z,98087.00
2023-04-15T20:18:15.060Z,98089.06
2023-04-15T20:20:42.201Z,98101.53
2023-04-15T20:23:10.086Z,98106.31
2023-04-15T20:25:37.293Z,98094.41
2023-04-15T20:28:04.679Z,98093.69
2023-04-15T20:30:32.041Z,98100.47
2023-04-15T20:32:59.752Z,98089.84
2023-04-15T20:35:31.017Z,98095.81
2023-04-15T20:37:58.524Z,98092.00
2023-04-15T20:40:26.146Z,98084.84
2023-04-15T20:42:53.513Z,98087.22
2023-04-15T20:45:20.714Z,98086.63
2023-04-15T20:47:48.392Z,98087.22
2023-04-15T20:50:15.758Z,98096.22
2023-04-15T20:52:43.288Z,98095.03
2023-04-15T20:55:11.497Z,98092.66
2023-04-15T20:57:58.662Z,98102.25
2023-04-15T21:00:25.871Z,98099.34
2023-04-15T21:02:53.473Z,98104.97
2023-04-15T21:05:25.989Z,98110.00
2023-04-15T21:07:54.542Z,98103.69
2023-04-15T21:10:23.018Z,98120.06
2023-04-15T21:12:50.584Z,98119.13
2023-04-15T21:15:17.874Z,98132.09
2023-04-15T21:17:45.195Z,98125.81
2023-04-15T21:20:12.583Z,98135.06
2023-04-15T21:22:40.426Z,98144.94
2023-04-15T21:25:07.974Z,98144.22
2023-04-15T21:27:35.251Z,98143.88
2023-04-15T21:30:02.897Z,98152.34
2023-04-15T21:32:30.786Z,98150.00
2023-04-15T21:34:58.315Z,98151.41
2023-04-15T21:37:25.924Z,98151.56
2023-04-15T21:39:52.882Z,98159.78
2023-04-15T21:42:20.135Z,98165.38
2023-04-15T21:44:47.630Z,98159.50
2023-04-15T21:47:14.974Z,98159.97
2023-04-15T21:49:42.237Z,98166.09
2023-04-15T21:52:10.138Z,98174.19
2023-04-15T21:54:38.165Z,98175.81
2023-04-15T21:57:05.553Z,98174.25
2023-04-15T21:59:32.657Z,98181.41
2023-04-15T22:03:10.016Z,98174.25
2023-04-15T22:05:37.554Z,98180.53
2023-04-15T22:08:05.487Z,98180.34
2023-04-15T22:10:32.385Z,98187.75
2023-04-15T22:13:02.967Z,98191.81
2023-04-15T22:15:29.930Z,98204.38
2023-04-15T22:17:57.247Z,98202.91
2023-04-15T22:20:24.342Z,98204.41
2023-04-15T22:22:54.470Z,98204.03
2023-04-15T22:25:21.700Z,98214.03
2023-04-15T22:27:49.084Z,98215.56
2023-04-15T22:30:16.096Z,98205.25
2023-04-15T22:32:44.446Z,98206.63
2023-04-15T22:35:11.715Z,98206.34
2023-04-15T22:37:38.956Z,98214.84
2023-04-15T22:40:06.637Z,98215.56
2023-04-15T22:42:34.034Z,98228.66
2023-04-15T22:45:00.957Z,98222.38
2023-04-15T22:47:28.327Z,98225.72
2023-04-15T22:49:55.435Z,98230.81
2023-04-15T22:52:30.079Z,98239.25
2023-04-15T22:54:58.353Z,98243.34
2023-04-15T22:57:25.620Z,98239.69
2023-04-15T22:59:52.489Z,98242.72
2023-04-15T23:02:20.261Z,98238.66
2023-04-15T23:04:47.436Z,98243.03
2023-04-15T23:07:14.667Z,98249.19
2023-04-15T23:09:41.853Z,98254.41
2023-04-15T23:12:09.405Z,98255.88
2023-04-15T23:14:36.386Z,98258.44
2023-04-15T23:17:04.467Z,98259.34
2023-04-15T23:19:31.381Z,98251.66
2023-04-15T23:21:58.775Z,98253.31
2023-04-15T23:24:26.071Z,98255.81
2023-04-15T23:26:53.346Z,98255.78
2023-04-15T23:29:20.200Z,98247.50
2023-04-15T23:31:47.779Z,98248.53
2023-04-15T23:34:14.681Z,98249.91
2023-04-15T23:36:41.999Z,98250.19
2023-04-15T23:39:09.745Z,98249.47
2023-04-15T23:41:37.306Z,98245.69
2023-04-15T23:44:04.447Z,98256.00
2023-04-15T23:46:32.021Z,98254.22
2023-04-15T23:48:59.465Z,98254.56
2023-04-15T23:51:26.681Z,98255.63
2023-04-15T23:53:53.961Z,98254.28
2023-04-15T23:56:21.494Z,98263.91
2023-04-15T23:58:48.524Z,98260.88
